Time;durP1;ratioP1;P1;durP2;ratioP2;P2;SDS_P1;SDS_P2;PMS_P1;PMS_P2;Temp;Humidity;BMP_temperature;BMP_pressure;BME280_temperature;BME280_humidity;BME280_pressure;Samples;Min_cycle;Max_cycle;Signal;HPM_P1;HPM_P2
2022/02/26 00:00:04;;;;;;;;;;;;;;;0.10;79.97;100039.56;5051455;28;862;-58
2022/02/26 00:02:31;;;;;;;;;;;;;;;0.01;79.88;100041.53;5051266;28;1945;-57
2022/02/26 00:04:57;;;;;;;;;;;;;;;-0.07;80.03;100043.16;5050087;28;916;-59
2022/02/26 00:07:24;;;;;;;;;;;;;;;-0.12;80.23;100045.25;5051350;28;851;-58
2022/02/26 00:09:50;;;;;;;;;;;;;;;-0.21;80.32;100040.66;5051401;28;806;-58
2022/02/26 00:12:17;;;;;;;;;;;;;;;-0.21;80.59;100048.78;5051300;28;795;-59
2022/02/26 00:14:43;;;;;;;;;;;;;;;-0.15;80.68;100043.16;5051264;28;911;-59
2022/02/26 00:17:10;;;;;;;;;;;;;;;-0.09;80.54;100050.03;5051335;28;1070;-59
2022/02/26 00:19:36;;;;;;;;;;;;;;;-0.08;80.40;100049.72;5051228;28;892;-59
2022/02/26 00:22:03;;;;;;;;;;;;;;;-0.04;80.54;100049.88;5051105;28;1882;-59
2022/02/26 00:24:30;;;;;;;;;;;;;;;0.08;79.50;100057.31;5051317;28;854;-59
2022/02/26 00:26:56;;;;;;;;;;;;;;;-0.04;78.92;100053.38;5051179;28;824;-59
2022/02/26 00:29:23;;;;;;;;;;;;;;;-0.17;79.17;100056.28;5051229;28;807;-59
2022/02/26 00:31:49;;;;;;;;;;;;;;;-0.24;79.32;100060.28;5051156;28;839;-59
2022/02/26 00:34:16;;;;;;;;;;;;;;;-0.27;79.45;100060.16;5051081;28;1325;-59
2022/02/26 00:36:43;;;;;;;;;;;;;;;-0.39;79.90;100049.94;5051435;28;902;-59
2022/02/26 00:39:09;;;;;;;;;;;;;;;-0.39;80.21;100052.66;5054183;28;1200;-59
2022/02/26 00:41:36;;;;;;;;;;;;;;;-0.33;80.05;100045.94;5055007;28;1967;-59
2022/02/26 00:44:02;;;;;;;;;;;;;;;-0.36;79.63;100049.31;5055178;28;906;-59
2022/02/26 00:46:29;;;;;;;;;;;;;;;-0.54;80.33;100056.69;5055000;28;874;-59
2022/02/26 00:51:41;;;;;;;;;;;;;;;-0.35;79.84;100047.38;5055202;28;700;-58
2022/02/26 00:54:07;;;;;;;;;;;;;;;-0.36;79.91;100041.16;5054767;28;1110;-58
2022/02/26 00:56:34;;;;;;;;;;;;;;;-0.29;80.06;100041.47;5054857;28;842;-58
2022/02/26 00:59:00;;;;;;;;;;;;;;;-0.20;79.90;100044.16;5054667;28;874;-59
2022/02/26 01:01:27;;;;;;;;;;;;;;;-0.01;79.71;100043.78;5054500;28;1886;-59
2022/02/26 01:03:53;;;;;;;;;;;;;;;0.28;78.75;100040.31;5054608;28;858;-60
2022/02/26 01:06:19;;;;;;;;;;;;;;;0.19;78.03;100048.50;5054648;28;831;-60
2022/02/26 01:08:45;;;;;;;;;;;;;;;-0.26;78.43;100040.81;5054601;28;888;-60
2022/02/26 01:11:12;;;;;;;;;;;;;;;-0.68;79.28;100046.00;5054419;28;882;-60
2022/02/26 01:13:38;;;;;;;;;;;;;;;-1.14;79.90;100054.78;5054453;28;819;-60
2022/02/26 01:16:05;;;;;;;;;;;;;;;-1.47;81.31;100053.28;5054172;28;868;-60
2022/02/26 01:18:31;;;;;;;;;;;;;;;-1.64;82.26;100047.84;5054816;28;965;-59
2022/02/26 01:20:58;;;;;;;;;;;;;;;-1.70;82.85;100049.09;5054225;28;1914;-60
2022/02/26 01:23:24;;;;;;;;;;;;;;;-1.74;83.26;100053.53;5054349;28;815;-60
2022/02/26 01:25:51;;;;;;;;;;;;;;;-1.74;84.37;100048.91;5054136;28;792;-60
2022/02/26 01:28:17;;;;;;;;;;;;;;;-1.59;85.01;100058.50;5054167;28;831;-60
2022/02/26 01:30:43;;;;;;;;;;;;;;;-1.34;84.73;100059.69;5052828;28;886;-60
2022/02/26 01:33:09;;;;;;;;;;;;;;;-1.19;84.73;100055.75;5054075;28;813;-60
2022/02/26 01:35:35;;;;;;;;;;;;;;;-1.10;84.26;100053.81;5054013;28;873;-60
2022/02/26 01:38:03;;;;;;;;;;;;;;;-1.11;83.80;100056.84;5053647;28;1376;-59
2022/02/26 01:40:30;;;;;;;;;;;;;;;-1.17;83.75;100069.78;5053912;28;901;-59
2022/02/26 01:42:56;;;;;;;;;;;;;;;-1.22;84.00;100067.22;5053841;28;1963;-58
2022/02/26 01:45:26;;;;;;;;;;;;;;;-1.12;83.81;100064.19;5053787;28;854;-59
2022/02/26 01:47:54;;;;;;;;;;;;;;;-1.12;83.82;100064.19;5053731;28;839;-58
2022/02/26 01:50:20;;;;;;;;;;;;;;;-1.15;84.10;100054.00;5053735;28;831;-58
2022/02/26 01:52:47;;;;;;;;;;;;;;;-1.17;83.81;100053.50;5053605;28;957;-59
2022/02/26 01:55:14;;;;;;;;;;;;;;;-1.31;84.25;100047.41;5053730;28;818;-60
2022/02/26 01:57:40;;;;;;;;;;;;;;;-1.31;84.76;100042.00;5053538;28;859;-60
2022/02/26 02:00:08;;;;;;;;;;;;;;;-1.43;84.73;100042.59;5053650;28;874;-59
2022/02/26 02:02:35;;;;;;;;;;;;;;;-1.52;85.16;100036.38;5053422;28;1930;-59
2022/02/26 02:05:02;;;;;;;;;;;;;;;-1.62;85.14;100036.66;5053479;28;1010;-58
2022/02/26 02:07:28;;;;;;;;;;;;;;;-1.75;85.08;100033.78;5053436;28;902;-58
2022/02/26 02:09:55;;;;;;;;;;;;;;;-1.86;85.50;100033.25;5053444;28;1176;-58
2022/02/26 02:12:21;;;;;;;;;;;;;;;-1.95;85.47;100037.81;5053325;28;811;-58
2022/02/26 02:14:48;;;;;;;;;;;;;;;-1.97;86.24;100040.06;5052001;28;914;-59
2022/02/26 02:17:14;;;;;;;;;;;;;;;-1.88;86.23;100035.47;5068673;28;902;-58
2022/02/26 02:19:41;;;;;;;;;;;;;;;-1.79;86.64;100035.50;5053130;28;928;-58
2022/02/26 02:22:07;;;;;;;;;;;;;;;-1.72;86.55;100038.56;5053140;28;1886;-60
2022/02/26 02:24:34;;;;;;;;;;;;;;;-1.70;86.04;100040.97;5053013;28;842;-59
2022/02/26 02:27:01;;;;;;;;;;;;;;;-1.71;86.28;100052.91;5053159;28;874;-59
2022/02/26 02:29:28;;;;;;;;;;;;;;;-1.66;86.08;100060.91;5053017;28;831;-60
2022/02/26 02:31:55;;;;;;;;;;;;;;;-1.62;86.66;100061.88;5052880;28;900;-58
2022/02/26 02:34:20;;;;;;;;;;;;;;;-1.56;86.23;100059.78;5052885;28;847;-57
2022/02/26 02:36:48;;;;;;;;;;;;;;;-1.56;86.10;100051.66;5052813;28;909;-59
2022/02/26 02:39:15;;;;;;;;;;;;;;;-1.60;85.97;100047.97;5052552;28;1295;-57
2022/02/26 02:41:41;;;;;;;;;;;;;;;-1.60;85.54;100050.69;5052723;28;1971;-60
2022/02/26 02:44:13;;;;;;;;;;;;;;;-1.56;85.92;100043.53;5052845;28;815;-60
2022/02/26 02:46:40;;;;;;;;;;;;;;;-1.51;85.79;100048.81;5052616;28;930;-60
2022/02/26 02:49:07;;;;;;;;;;;;;;;-1.43;85.41;100042.59;5052675;28;874;-60
2022/02/26 02:51:33;;;;;;;;;;;;;;;-1.35;85.41;100049.94;5052603;28;827;-60
2022/02/26 02:53:59;;;;;;;;;;;;;;;-1.36;84.94;100045.66;5052407;28;917;-60
2022/02/26 02:56:25;;;;;;;;;;;;;;;-1.30;84.22;100052.53;5052466;28;878;-60
2022/02/26 02:58:52;;;;;;;;;;;;;;;-1.30;84.34;100049.81;5052431;28;862;-60
2022/02/26 03:01:18;;;;;;;;;;;;;;;-1.31;84.23;100050.13;5051806;28;1943;-60
2022/02/26 03:03:45;;;;;;;;;;;;;;;-1.33;84.20;100053.16;5052399;28;843;-59
2022/02/26 03:06:12;;;;;;;;;;;;;;;-1.34;83.68;100046.16;5052398;28;913;-60
2022/02/26 03:08:38;;;;;;;;;;;;;;;-1.33;83.42;100057.78;5052287;28;870;-60
2022/02/26 03:11:04;;;;;;;;;;;;;;;-1.38;83.57;100063.38;5052294;28;882;-59
2022/02/26 03:13:32;;;;;;;;;;;;;;;-1.39;83.38;100065.25;5052037;28;894;-60
2022/02/26 03:15:59;;;;;;;;;;;;;;;-1.46;83.40;100068.44;5052425;28;979;-60
2022/02/26 03:18:26;;;;;;;;;;;;;;;-1.50;83.53;100069.38;5052518;28;978;-60
2022/02/26 03:20:53;;;;;;;;;;;;;;;-1.53;83.64;100068.09;5052014;28;1886;-60
2022/02/26 03:23:19;;;;;;;;;;;;;;;-1.46;83.61;100067.63;5052038;28;843;-59
2022/02/26 03:25:45;;;;;;;;;;;;;;;-1.42;83.60;100073.25;5052008;28;874;-59
2022/02/26 03:28:12;;;;;;;;;;;;;;;-1.36;83.65;100074.69;5052049;28;842;-60
2022/02/26 03:30:40;;;;;;;;;;;;;;;-1.29;82.68;100066.88;5051845;28;846;-60
2022/02/26 03:33:06;;;;;;;;;;;;;;;-1.21;82.80;100070.75;5051807;28;989;-60
2022/02/26 03:35:33;;;;;;;;;;;;;;;-1.22;82.50;100075.34;5051784;28;787;-60
2022/02/26 03:37:59;;;;;;;;;;;;;;;-1.24;82.47;100083.00;5051666;28;1274;-60
2022/02/26 03:40:26;;;;;;;;;;;;;;;-1.20;82.42;100072.31;5051942;28;831;-60
2022/02/26 03:42:52;;;;;;;;;;;;;;;-1.18;82.47;100080.94;5051742;28;1909;-60
2022/02/26 03:45:19;;;;;;;;;;;;;;;-1.14;81.90;100079.97;5051922;28;842;-60
2022/02/26 03:47:45;;;;;;;;;;;;;;;-1.22;82.06;100086.19;5051933;28;1247;-60
2022/02/26 03:50:12;;;;;;;;;;;;;;;-1.22;81.92;100094.31;5051958;28;818;-60
2022/02/26 03:52:38;;;;;;;;;;;;;;;-1.21;81.75;100097.88;5051779;28;756;-59
2022/02/26 03:55:06;;;;;;;;;;;;;;;-1.26;81.75;100087.94;5051571;28;815;-60
2022/02/26 03:57:33;;;;;;;;;;;;;;;-1.28;81.47;100092.88;5051610;28;882;-60
2022/02/26 04:00:00;;;;;;;;;;;;;;;-1.24;81.80;100099.28;5051974;28;880;-60
2022/02/26 04:02:28;;;;;;;;;;;;;;;-1.18;81.63;100091.78;5051430;28;1935;-60
2022/02/26 04:04:55;;;;;;;;;;;;;;;-1.19;81.49;100093.72;5051612;28;953;-60
2022/02/26 04:07:22;;;;;;;;;;;;;;;-1.15;81.57;100097.41;5051901;28;945;-60
2022/02/26 04:09:48;;;;;;;;;;;;;;;-1.13;81.15;100097.88;5052170;28;760;-60
2022/02/26 04:12:16;;;;;;;;;;;;;;;-1.11;81.33;100106.50;5051572;28;878;-60
2022/02/26 04:14:42;;;;;;;;;;;;;;;-1.10;80.81;100102.66;5055704;28;934;-58
2022/02/26 04:17:08;;;;;;;;;;;;;;;-1.15;81.13;100108.25;5055753;28;917;-58
2022/02/26 04:19:34;;;;;;;;;;;;;;;-1.12;80.79;100091.31;5055441;28;894;-58
2022/02/26 04:22:01;;;;;;;;;;;;;;;-1.08;80.58;100089.56;5055335;28;1886;-58
2022/02/26 04:24:28;;;;;;;;;;;;;;;-1.11;80.68;100087.50;5055242;28;1036;-58
2022/02/26 04:26:54;;;;;;;;;;;;;;;-1.11;80.85;100086.69;5055337;28;953;-58
2022/02/26 04:29:20;;;;;;;;;;;;;;;-1.12;80.62;100091.31;5055275;28;842;-58
2022/02/26 04:31:47;;;;;;;;;;;;;;;-1.16;80.97;100086.84;5055468;28;882;-58
2022/02/26 04:34:14;;;;;;;;;;;;;;;-1.13;81.47;100086.19;5055180;28;858;-58
2022/02/26 04:36:40;;;;;;;;;;;;;;;-1.11;81.07;100078.53;5053893;28;876;-58
2022/02/26 04:39:07;;;;;;;;;;;;;;;-1.08;81.32;100075.22;5053623;28;1496;-58
2022/02/26 04:41:33;;;;;;;;;;;;;;;-1.01;81.35;100082.88;5054992;28;1977;-58
2022/02/26 04:43:59;;;;;;;;;;;;;;;-0.97;80.83;100078.41;5054924;28;908;-58
2022/02/26 04:46:26;;;;;;;;;;;;;;;-0.97;80.38;100094.69;5054936;28;941;-58
2022/02/26 04:48:52;;;;;;;;;;;;;;;-1.03;80.55;100096.75;5054950;28;838;-59
2022/02/26 04:51:18;;;;;;;;;;;;;;;-1.04;80.45;100106.81;5054810;28;847;-58
2022/02/26 04:53:45;;;;;;;;;;;;;;;-1.08;80.58;100105.84;5054829;28;906;-58
2022/02/26 04:56:11;;;;;;;;;;;;;;;-1.14;80.43;100109.81;5054750;28;815;-58
2022/02/26 04:58:38;;;;;;;;;;;;;;;-1.16;80.36;100117.47;5054701;28;1023;-58
2022/02/26 05:01:04;;;;;;;;;;;;;;;-1.23;80.69;100120.66;5054549;28;1886;-58
2022/02/26 05:03:31;;;;;;;;;;;;;;;-1.31;80.56;100128.78;5054684;28;831;-60
2022/02/26 05:05:58;;;;;;;;;;;;;;;-1.35;81.26;100130.50;5054555;28;816;-59
2022/02/26 05:08:24;;;;;;;;;;;;;;;-1.39;81.17;100122.19;5054523;28;839;-60
2022/02/26 05:10:52;;;;;;;;;;;;;;;-1.29;81.42;100126.56;5054489;28;800;-58
2022/02/26 05:13:19;;;;;;;;;;;;;;;-1.19;81.27;100130.91;5053137;28;1609;-58
2022/02/26 05:15:46;;;;;;;;;;;;;;;-1.09;80.76;100136.81;5054515;28;810;-58
2022/02/26 05:18:12;;;;;;;;;;;;;;;-0.98;80.68;100136.50;5054672;28;945;-58
2022/02/26 05:20:39;;;;;;;;;;;;;;;-0.85;80.16;100146.44;5054394;28;834;-58
2022/02/26 05:23:05;;;;;;;;;;;;;;;-0.84;79.72;100146.09;5053841;28;1941;-58
2022/02/26 05:25:32;;;;;;;;;;;;;;;-0.85;79.29;100158.09;5054266;28;819;-58
2022/02/26 05:27:58;;;;;;;;;;;;;;;-0.86;79.27;100153.75;5054184;28;881;-60
2022/02/26 05:30:24;;;;;;;;;;;;;;;-0.92;79.13;100160.44;5054328;28;878;-58
2022/02/26 05:32:51;;;;;;;;;;;;;;;-0.95;79.26;100169.25;5054004;28;914;-58
2022/02/26 05:35:16;;;;;;;;;;;;;;;-0.93;79.12;100175.16;5054021;28;917;-58
2022/02/26 05:37:42;;;;;;;;;;;;;;;-0.88;78.88;100172.28;5053869;28;1320;-58
2022/02/26 05:40:09;;;;;;;;;;;;;;;-0.76;78.95;100177.09;5054039;28;803;-58
2022/02/26 05:42:36;;;;;;;;;;;;;;;-0.63;78.61;100176.16;5053804;28;1938;-58
2022/02/26 05:45:02;;;;;;;;;;;;;;;-0.39;78.08;100169.44;5052600;28;1187;-58
2022/02/26 05:47:29;;;;;;;;;;;;;;;-0.02;77.24;100180.78;5054184;28;780;-58
2022/02/26 05:49:56;;;;;;;;;;;;;;;0.12;75.67;100181.38;5053966;28;874;-58
2022/02/26 05:52:22;;;;;;;;;;;;;;;-0.21;76.17;100181.13;5053961;28;807;-58
2022/02/26 05:54:49;;;;;;;;;;;;;;;-0.41;76.81;100177.13;5053984;28;862;-58
2022/02/26 05:57:15;;;;;;;;;;;;;;;-0.14;76.89;100186.06;5054500;28;874;-58
2022/02/26 05:59:42;;;;;;;;;;;;;;;-0.11;76.29;100188.13;5053878;28;874;-59
2022/02/26 06:02:08;;;;;;;;;;;;;;;0.14;76.11;100181.88;5053757;28;1889;-59
2022/02/26 06:04:35;;;;;;;;;;;;;;;0.11;75.03;100182.53;5053528;28;846;-59
2022/02/26 06:07:01;;;;;;;;;;;;;;;0.05;76.18;100183.81;5053409;28;933;-59
2022/02/26 06:09:27;;;;;;;;;;;;;;;0.64;74.70;100185.91;5053432;28;796;-57
2022/02/26 06:11:53;;;;;;;;;;;;;;;1.17;72.52;100183.69;5051997;28;2453;-59
2022/02/26 06:14:19;;;;;;;;;;;;;;;1.04;71.85;100190.19;5053302;28;826;-59
2022/02/26 06:16:46;;;;;;;;;;;;;;;0.67;72.61;100185.22;5053378;28;893;-59
2022/02/26 06:19:13;;;;;;;;;;;;;;;0.30;73.80;100190.31;5053124;28;874;-58
2022/02/26 06:21:39;;;;;;;;;;;;;;;0.38;74.44;100192.22;5053199;28;1886;-59
2022/02/26 06:24:06;;;;;;;;;;;;;;;0.99;72.75;100188.44;5051822;28;2428;-59
2022/02/26 06:26:32;;;;;;;;;;;;;;;1.40;71.45;100192.34;5051816;28;863;-58
2022/02/26 06:28:59;;;;;;;;;;;;;;;1.91;70.45;100190.34;5053241;28;1084;-58
2022/02/26 06:31:26;;;;;;;;;;;;;;;2.41;68.50;100194.03;5052992;28;854;-59
2022/02/26 06:33:52;;;;;;;;;;;;;;;2.74;67.05;100198.63;5052943;28;892;-58
2022/02/26 06:36:18;;;;;;;;;;;;;;;3.04;66.92;100197.28;5052060;28;901;-59
2022/02/26 06:38:45;;;;;;;;;;;;;;;3.15;67.24;100196.81;5052601;28;1421;-59
2022/02/26 06:41:11;;;;;;;;;;;;;;;3.28;66.94;100203.84;5052643;28;1914;-59
2022/02/26 06:43:39;;;;;;;;;;;;;;;3.18;67.06;100201.59;5053035;28;870;-59
2022/02/26 06:46:06;;;;;;;;;;;;;;;3.32;66.38;100206.72;5052709;28;871;-59
2022/02/26 06:48:33;;;;;;;;;;;;;;;3.55;66.28;100205.06;5052580;28;847;-57
2022/02/26 06:50:58;;;;;;;;;;;;;;;4.04;65.46;100206.84;5052530;28;887;-59
2022/02/26 06:53:24;;;;;;;;;;;;;;;4.07;64.78;100217.09;5052569;28;830;-58
2022/02/26 06:55:50;;;;;;;;;;;;;;;4.02;64.36;100209.16;5052461;28;1754;-59
2022/02/26 06:58:17;;;;;;;;;;;;;;;4.03;66.21;100208.81;5052459;28;931;-59
2022/02/26 07:00:44;;;;;;;;;;;;;;;4.08;65.80;100208.53;5052507;28;893;-59
2022/02/26 07:03:10;;;;;;;;;;;;;;;4.08;66.59;100203.06;5052299;28;1885;-59
2022/02/26 07:05:36;;;;;;;;;;;;;;;4.29;66.98;100219.28;5052363;28;807;-59
2022/02/26 07:08:02;;;;;;;;;;;;;;;4.90;65.08;100211.81;5052344;28;883;-59
2022/02/26 07:10:29;;;;;;;;;;;;;;;5.41;63.83;100220.06;5052255;28;819;-59
2022/02/26 07:12:55;;;;;;;;;;;;;;;5.71;62.03;100214.06;5052075;28;937;-59
2022/02/26 07:15:22;;;;;;;;;;;;;;;6.09;61.15;100213.31;5052186;28;854;-59
2022/02/26 07:17:48;;;;;;;;;;;;;;;6.11;61.93;100218.44;5052317;28;1070;-59
2022/02/26 07:20:15;;;;;;;;;;;;;;;6.26;61.32;100219.50;5052015;28;859;-59
2022/02/26 07:22:42;;;;;;;;;;;;;;;6.66;61.21;100223.78;5052334;28;1967;-59
2022/02/26 07:25:10;;;;;;;;;;;;;;;7.05;59.69;100218.94;5051936;28;1140;-59
2022/02/26 07:27:37;;;;;;;;;;;;;;;7.46;59.72;100226.59;5052114;28;803;-59
2022/02/26 07:30:03;;;;;;;;;;;;;;;7.55;58.75;100229.88;5050592;28;1392;-59
2022/02/26 07:32:30;;;;;;;;;;;;;;;7.69;58.84;100226.53;5051886;28;1134;-59
2022/02/26 07:34:59;;;;;;;;;;;;;;;8.15;58.46;100226.31;5051929;28;900;-59
2022/02/26 07:37:25;;;;;;;;;;;;;;;8.61;57.20;100231.56;5051447;28;1262;-59
2022/02/26 07:39:54;;;;;;;;;;;;;;;8.86;56.41;100233.78;5051542;28;894;-59
2022/02/26 07:42:20;;;;;;;;;;;;;;;8.74;56.59;100235.63;5051679;28;1989;-59
2022/02/26 07:44:47;;;;;;;;;;;;;;;9.02;55.58;100233.50;5051598;28;1248;-59
2022/02/26 07:47:13;;;;;;;;;;;;;;;9.21;55.06;100241.53;5051558;28;926;-59
2022/02/26 07:49:40;;;;;;;;;;;;;;;9.37;54.39;100242.06;5051550;28;869;-58
2022/02/26 07:52:06;;;;;;;;;;;;;;;9.82;52.45;100233.66;5051525;28;938;-59
2022/02/26 07:54:32;;;;;;;;;;;;;;;10.09;52.00;100236.94;5051512;28;886;-59
2022/02/26 07:56:59;;;;;;;;;;;;;;;10.45;51.59;100233.53;5067154;28;791;-59
2022/02/26 07:59:25;;;;;;;;;;;;;;;10.69;49.81;100238.31;5051632;28;823;-59
2022/02/26 08:01:56;;;;;;;;;;;;;;;10.67;46.66;100226.88;5051728;28;1886;-59
2022/02/26 08:04:22;;;;;;;;;;;;;;;10.60;44.77;100221.31;5051421;28;957;-59
2022/02/26 08:06:49;;;;;;;;;;;;;;;10.62;44.12;100233.56;5051438;28;917;-59
2022/02/26 08:09:15;;;;;;;;;;;;;;;10.54;43.37;100243.03;5051553;28;874;-59
2022/02/26 08:11:42;;;;;;;;;;;;;;;10.79;44.18;100225.69;5051289;28;871;-59
2022/02/26 08:14:08;;;;;;;;;;;;;;;10.82;42.98;100234.00;5051407;28;839;-59
2022/02/26 08:16:34;;;;;;;;;;;;;;;10.53;42.90;100237.88;5051387;28;995;-59
2022/02/26 08:19:00;;;;;;;;;;;;;;;10.51;44.20;100243.00;5051434;28;828;-59
2022/02/26 08:21:27;;;;;;;;;;;;;;;10.48;43.24;100238.28;5051421;28;1906;-60
2022/02/26 08:23:54;;;;;;;;;;;;;;;10.61;43.28;100254.09;5051887;28;807;-59
2022/02/26 08:26:20;;;;;;;;;;;;;;;10.89;43.74;100244.25;5051139;28;828;-59
2022/02/26 08:28:47;;;;;;;;;;;;;;;10.73;41.33;100255.72;5051227;28;815;-59
2022/02/26 08:31:13;;;;;;;;;;;;;;;10.51;43.30;100252.09;5051144;28;913;-59
2022/02/26 08:33:39;;;;;;;;;;;;;;;10.59;43.67;100250.94;5051315;28;843;-59
2022/02/26 08:36:05;;;;;;;;;;;;;;;10.58;42.24;100243.84;5051136;28;799;-59
2022/02/26 08:38:32;;;;;;;;;;;;;;;10.69;43.33;100254.91;5050720;28;1327;-59
2022/02/26 08:40:59;;;;;;;;;;;;;;;10.95;42.57;100242.69;5050981;28;1910;-59
2022/02/26 08:43:25;;;;;;;;;;;;;;;11.11;42.36;100249.81;5050932;28;875;-59
2022/02/26 08:45:52;;;;;;;;;;;;;;;11.36;42.61;100256.13;5051050;28;902;-59
2022/02/26 08:48:18;;;;;;;;;;;;;;;11.45;42.86;100252.94;5050987;28;807;-59
2022/02/26 08:50:45;;;;;;;;;;;;;;;11.42;41.06;100250.97;5051039;28;874;-59
2022/02/26 08:53:12;;;;;;;;;;;;;;;11.32;41.10;100240.69;5050867;28;942;-59
2022/02/26 08:55:38;;;;;;;;;;;;;;;11.32;41.39;100238.72;5050919;28;881;-59
2022/02/26 08:58:04;;;;;;;;;;;;;;;11.42;42.14;100234.38;5051117;28;898;-59
2022/02/26 09:00:31;;;;;;;;;;;;;;;11.60;43.08;100237.88;5054623;28;843;-60
2022/02/26 09:02:57;;;;;;;;;;;;;;;11.83;41.10;100242.19;5054592;28;1951;-60
2022/02/26 09:05:24;;;;;;;;;;;;;;;11.84;40.76;100238.22;5054538;28;882;-59
2022/02/26 09:07:50;;;;;;;;;;;;;;;11.77;40.05;100244.56;5054516;28;814;-59
2022/02/26 09:10:17;;;;;;;;;;;;;;;11.44;40.28;100243.84;5054637;28;854;-59
2022/02/26 09:12:44;;;;;;;;;;;;;;;11.37;42.97;100243.88;5054489;28;878;-59
2022/02/26 09:15:11;;;;;;;;;;;;;;;11.61;42.47;100239.47;5054468;28;839;-59
2022/02/26 09:17:37;;;;;;;;;;;;;;;11.62;41.87;100243.81;5054657;28;959;-60
2022/02/26 09:20:04;;;;;;;;;;;;;;;11.67;42.70;100250.94;5054434;28;901;-59
2022/02/26 09:22:31;;;;;;;;;;;;;;;11.52;41.39;100246.59;5054159;28;1969;-59
2022/02/26 09:24:57;;;;;;;;;;;;;;;11.50;41.46;100249.78;5054356;28;831;-59
2022/02/26 09:27:24;;;;;;;;;;;;;;;11.41;42.45;100254.91;5054488;28;977;-59
2022/02/26 09:29:51;;;;;;;;;;;;;;;11.55;41.98;100254.91;5054192;28;819;-59
2022/02/26 09:32:18;;;;;;;;;;;;;;;11.55;42.77;100243.84;5054193;28;835;-59
2022/02/26 09:34:45;;;;;;;;;;;;;;;11.59;42.67;100239.09;5054098;28;897;-59
2022/02/26 09:37:11;;;;;;;;;;;;;;;11.67;42.87;100247.34;5053670;28;1170;-59
2022/02/26 09:39:37;;;;;;;;;;;;;;;11.66;42.68;100241.03;5052680;28;1188;-59
2022/02/26 09:42:04;;;;;;;;;;;;;;;11.55;42.08;100246.59;5053955;28;1978;-60
2022/02/26 09:44:30;;;;;;;;;;;;;;;11.40;42.60;100250.59;5053820;28;935;-59
2022/02/26 09:46:58;;;;;;;;;;;;;;;11.30;42.09;100243.84;5053884;28;827;-59
2022/02/26 09:49:25;;;;;;;;;;;;;;;11.21;42.16;100247.03;5053739;28;831;-60
2022/02/26 09:51:52;;;;;;;;;;;;;;;11.35;42.27;100245.44;5053727;28;898;-60
2022/02/26 09:54:18;;;;;;;;;;;;;;;11.46;42.01;100249.00;5053750;28;898;-59
2022/02/26 09:56:45;;;;;;;;;;;;;;;11.66;43.04;100249.34;5053906;28;886;-59
2022/02/26 09:59:13;;;;;;;;;;;;;;;11.70;41.00;100249.34;5053610;28;907;-59
2022/02/26 10:02:00;;;;;;;;;;;;;;;11.68;42.29;100249.75;5053448;28;1947;-60
2022/02/26 10:04:27;;;;;;;;;;;;;;;11.84;42.07;100249.28;5053417;28;1908;-59
2022/02/26 10:07:10;;;;;;;;;;;;;;;11.73;41.30;100248.53;5053317;28;932;-59
2022/02/26 10:09:40;;;;;;;;;;;;;;;11.65;41.68;100247.78;5053061;28;907;-59
2022/02/26 10:12:25;;;;;;;;;;;;;;;11.72;40.68;100242.22;5052760;28;872;-59
2022/02/26 10:14:54;;;;;;;;;;;;;;;11.75;42.10;100243.38;5053581;28;934;-59
2022/02/26 10:17:25;;;;;;;;;;;;;;;11.71;41.26;100245.38;5053362;28;931;-60
2022/02/26 10:20:12;;;;;;;;;;;;;;;11.61;41.31;100233.94;5053197;28;899;-60
2022/02/26 10:22:43;;;;;;;;;;;;;;;11.54;41.96;100239.50;5053067;28;1901;-59
2022/02/26 10:25:09;;;;;;;;;;;;;;;11.88;41.28;100236.25;5053106;28;975;-59
2022/02/26 10:27:41;;;;;;;;;;;;;;;12.04;40.01;100233.03;5053159;28;803;-60
2022/02/26 10:30:08;;;;;;;;;;;;;;;11.99;39.61;100238.97;5052967;28;906;-59
2022/02/26 10:32:34;;;;;;;;;;;;;;;12.32;40.66;100226.56;5053012;28;882;-59
2022/02/26 10:35:01;;;;;;;;;;;;;;;12.72;39.86;100224.34;5068343;28;925;-60
2022/02/26 10:37:27;;;;;;;;;;;;;;;12.78;38.36;100228.28;5052473;28;1226;-59
2022/02/26 10:39:58;;;;;;;;;;;;;;;12.79;38.59;100229.84;5052790;28;859;-59
2022/02/26 10:42:31;;;;;;;;;;;;;;;13.05;38.99;100224.88;5052711;28;1910;-59
2022/02/26 10:45:08;;;;;;;;;;;;;;;13.02;38.88;100214.63;5052892;28;909;-59
2022/02/26 10:47:36;;;;;;;;;;;;;;;12.93;38.78;100214.28;5052980;28;867;-59
2022/02/26 10:50:21;;;;;;;;;;;;;;;12.74;39.69;100218.38;5052672;28;980;-59
2022/02/26 10:52:59;;;;;;;;;;;;;;;12.52;39.17;100212.97;5052504;28;981;-59
2022/02/26 10:55:46;;;;;;;;;;;;;;;12.60;41.06;100197.88;5052569;28;914;-59
2022/02/26 10:58:20;;;;;;;;;;;;;;;12.67;39.74;100199.81;5051896;28;1636;-59
2022/02/26 11:00:46;;;;;;;;;;;;;;;12.37;40.78;100211.50;5052536;28;882;-59
2022/02/26 11:03:12;;;;;;;;;;;;;;;12.54;42.05;100218.13;5052245;28;1885;-60
2022/02/26 11:05:39;;;;;;;;;;;;;;;12.15;40.81;100214.38;5052296;28;914;-60
2022/02/26 11:08:06;;;;;;;;;;;;;;;11.49;41.35;100217.75;5052309;28;838;-60
2022/02/26 11:10:33;;;;;;;;;;;;;;;11.48;42.01;100210.63;5052312;28;856;-60
2022/02/26 11:13:00;;;;;;;;;;;;;;;12.22;41.17;100214.34;5052189;28;905;-60
2022/02/26 11:15:28;;;;;;;;;;;;;;;12.76;40.94;100205.72;5052188;28;902;-60
2022/02/26 11:17:57;;;;;;;;;;;;;;;12.96;38.72;100197.63;5052388;28;1065;-60
2022/02/26 11:20:26;;;;;;;;;;;;;;;13.04;39.37;100198.34;5050858;28;1179;-60
2022/02/26 11:22:55;;;;;;;;;;;;;;;13.20;39.02;100201.34;5051712;28;1890;-59
2022/02/26 11:25:25;;;;;;;;;;;;;;;13.48;39.34;100205.09;5052058;28;850;-60
2022/02/26 11:27:52;;;;;;;;;;;;;;;13.20;39.00;100206.13;5051928;28;891;-60
2022/02/26 11:30:23;;;;;;;;;;;;;;;13.03;38.62;100205.88;5051832;28;855;-59
2022/02/26 11:32:50;;;;;;;;;;;;;;;13.16;38.11;100213.69;5052204;28;807;-59
2022/02/26 11:35:18;;;;;;;;;;;;;;;13.24;37.96;100226.31;5051781;28;819;-59
2022/02/26 11:37:48;;;;;;;;;;;;;;;12.68;39.20;100214.50;5051602;28;1439;-59
2022/02/26 11:40:15;;;;;;;;;;;;;;;12.05;40.24;100212.44;5051849;28;823;-60
2022/02/26 11:42:41;;;;;;;;;;;;;;;11.87;41.70;100206.19;5051928;28;1910;-60
2022/02/26 11:45:18;;;;;;;;;;;;;;;12.39;41.96;100209.13;5051996;28;803;-59
2022/02/26 11:47:57;;;;;;;;;;;;;;;13.42;38.73;100206.72;5051707;28;824;-59
2022/02/26 11:50:28;;;;;;;;;;;;;;;14.37;37.67;100206.00;5050551;28;1503;-59
2022/02/26 11:52:55;;;;;;;;;;;;;;;14.95;36.18;100200.38;5051524;28;851;-61
2022/02/26 11:55:22;;;;;;;;;;;;;;;13.87;36.86;100212.22;5051545;28;913;-60
2022/02/26 11:57:50;;;;;;;;;;;;;;;12.72;38.72;100209.72;5051535;28;870;-60
2022/02/26 12:00:17;;;;;;;;;;;;;;;12.00;39.92;100213.66;5051461;28;850;-61
2022/02/26 12:02:44;;;;;;;;;;;;;;;11.61;40.42;100206.25;5051519;28;1969;-60
2022/02/26 12:05:10;;;;;;;;;;;;;;;11.41;41.15;100194.84;5051300;28;835;-60
2022/02/26 12:07:41;;;;;;;;;;;;;;;11.20;41.24;100195.66;5051423;28;931;-60
2022/02/26 12:10:11;;;;;;;;;;;;;;;11.08;40.69;100196.06;5051612;28;829;-60
2022/02/26 12:12:42;;;;;;;;;;;;;;;11.14;40.58;100199.22;5051390;28;843;-60
2022/02/26 12:15:16;;;;;;;;;;;;;;;11.41;40.41;100203.16;5051358;28;812;-59
2022/02/26 12:17:45;;;;;;;;;;;;;;;11.65;39.60;100200.72;5051982;28;1026;-60
2022/02/26 12:20:15;;;;;;;;;;;;;;;11.91;38.90;100201.44;5051326;28;894;-60
2022/02/26 12:22:47;;;;;;;;;;;;;;;12.07;38.81;100196.22;5049949;28;2440;-60
2022/02/26 12:25:14;;;;;;;;;;;;;;;12.23;38.36;100204.84;5051327;28;873;-60
2022/02/26 12:27:42;;;;;;;;;;;;;;;12.68;37.51;100201.41;5051265;28;862;-60
2022/02/26 12:30:14;;;;;;;;;;;;;;;13.02;35.84;100206.31;5051288;28;909;-60
2022/02/26 12:32:51;;;;;;;;;;;;;;;13.59;35.88;100196.63;5051111;28;1051;-60
2022/02/26 12:35:18;;;;;;;;;;;;;;;13.57;35.46;100199.84;5054990;28;970;-60
2022/02/26 12:37:46;;;;;;;;;;;;;;;12.68;41.60;100203.41;5054975;28;1456;-60
2022/02/26 12:40:13;;;;;;;;;;;;;;;12.26;39.27;100200.47;5055134;28;831;-60
2022/02/26 12:42:42;;;;;;;;;;;;;;;12.28;37.97;100203.63;5054971;28;1910;-60
2022/02/26 12:45:10;;;;;;;;;;;;;;;12.34;37.43;100201.22;5055335;28;857;-60
2022/02/26 12:47:37;;;;;;;;;;;;;;;12.36;36.91;100201.63;5070519;28;854;-60
2022/02/26 12:50:04;;;;;;;;;;;;;;;12.97;36.58;100204.75;5054940;28;830;-60
2022/02/26 12:52:32;;;;;;;;;;;;;;;13.98;35.01;100210.09;5054888;28;819;-59
2022/02/26 12:54:59;;;;;;;;;;;;;;;14.29;34.20;100215.63;5054830;28;890;-60
2022/02/26 12:57:33;;;;;;;;;;;;;;;14.22;34.32;100210.97;5054894;28;830;-59